sensor_id;sensor_type;location;lat;lon;timestamp;pressure;altitude;pressure_sealevel;temperature
67599;BMP280;62026;39.230;9.122;2022-08-06T00:01:54;100853.81;;;29.36
67599;BMP280;62026;39.230;9.122;2022-08-06T00:04:21;100851.53;;;29.38
67599;BMP280;62026;39.230;9.122;2022-08-06T00:06:47;100854.69;;;29.40
67599;BMP280;62026;39.230;9.122;2022-08-06T00:09:14;100849.16;;;29.36
67599;BMP280;62026;39.230;9.122;2022-08-06T00:11:40;100851.19;;;29.39
67599;BMP280;62026;39.230;9.122;2022-08-06T00:14:07;100849.25;;;29.40
67599;BMP280;62026;39.230;9.122;2022-08-06T00:16:34;100846.91;;;29.38
67599;BMP280;62026;39.230;9.122;2022-08-06T00:19:00;100848.59;;;29.43
67599;BMP280;62026;39.230;9.122;2022-08-06T00:21:26;100844.97;;;29.39
67599;BMP280;62026;39.230;9.122;2022-08-06T00:23:53;100854.69;;;29.40
67599;BMP280;62026;39.230;9.122;2022-08-06T00:26:19;100841.34;;;29.35
67599;BMP280;62026;39.230;9.122;2022-08-06T00:28:45;100840.09;;;29.32
67599;BMP280;62026;39.230;9.122;2022-08-06T00:31:11;100845.06;;;29.43
67599;BMP280;62026;39.230;9.122;2022-08-06T00:33:41;100839.16;;;29.40
67599;BMP280;62026;39.230;9.122;2022-08-06T00:36:09;100838.38;;;29.40
67599;BMP280;62026;39.230;9.122;2022-08-06T00:38:35;100837.72;;;29.43
67599;BMP280;62026;39.230;9.122;2022-08-06T00:41:03;100837.81;;;29.47
67599;BMP280;62026;39.230;9.122;2022-08-06T00:43:29;100840.91;;;29.45
67599;BMP280;62026;39.230;9.122;2022-08-06T00:45:55;100838.72;;;29.38
67599;BMP280;62026;39.230;9.122;2022-08-06T00:48:22;100832.13;;;29.39
67599;BMP280;62026;39.230;9.122;2022-08-06T00:50:48;100822.97;;;29.32
67599;BMP280;62026;39.230;9.122;2022-08-06T00:53:14;100831.25;;;29.35
67599;BMP280;62026;39.230;9.122;2022-08-06T00:55:40;100827.38;;;29.36
67599;BMP280;62026;39.230;9.122;2022-08-06T00:58:07;100815.06;;;29.27
67599;BMP280;62026;39.230;9.122;2022-08-06T01:00:34;100829.53;;;29.31
67599;BMP280;62026;39.230;9.122;2022-08-06T01:03:00;100826.38;;;29.29
67599;BMP280;62026;39.230;9.122;2022-08-06T01:05:26;100820.13;;;29.28
67599;BMP280;62026;39.230;9.122;2022-08-06T01:07:53;100829.31;;;29.24
67599;BMP280;62026;39.230;9.122;2022-08-06T01:10:21;100818.44;;;29.24
67599;BMP280;62026;39.230;9.122;2022-08-06T01:12:48;100818.44;;;29.24
67599;BMP280;62026;39.230;9.122;2022-08-06T01:15:14;100818.34;;;29.20
67599;BMP280;62026;39.230;9.122;2022-08-06T01:17:55;100817.06;;;29.18
67599;BMP280;62026;39.230;9.122;2022-08-06T01:29:41;100813.22;;;29.07
67599;BMP280;62026;39.230;9.122;2022-08-06T01:32:15;100805.50;;;29.09
67599;BMP280;62026;39.230;9.122;2022-08-06T01:34:54;100805.66;;;29.12
67599;BMP280;62026;39.230;9.122;2022-08-06T01:37:32;100797.78;;;29.11
67599;BMP280;62026;39.230;9.122;2022-08-06T01:40:06;100806.44;;;29.13
67599;BMP280;62026;39.230;9.122;2022-08-06T01:42:33;100791.47;;;29.07
67599;BMP280;62026;39.230;9.122;2022-08-06T01:45:04;100805.75;;;29.16
67599;BMP280;62026;39.230;9.122;2022-08-06T01:47:33;100803.22;;;29.11
67599;BMP280;62026;39.230;9.122;2022-08-06T01:50:08;100811.09;;;29.12
67599;BMP280;62026;39.230;9.122;2022-08-06T01:52:42;100807.09;;;29.10
67599;BMP280;62026;39.230;9.122;2022-08-06T01:55:16;100802.69;;;29.05
67599;BMP280;62026;39.230;9.122;2022-08-06T01:57:50;100791.91;;;29.09
67599;BMP280;62026;39.230;9.122;2022-08-06T02:00:19;100801.00;;;29.13
67599;BMP280;62026;39.230;9.122;2022-08-06T02:02:47;100790.31;;;29.08
67599;BMP280;62026;39.230;9.122;2022-08-06T02:05:17;100800.31;;;29.16
67599;BMP280;62026;39.230;9.122;2022-08-06T02:07:49;100795.56;;;29.13
67599;BMP280;62026;39.230;9.122;2022-08-06T02:10:19;100793.50;;;29.10
67599;BMP280;62026;39.230;9.122;2022-08-06T02:12:48;100804.59;;;29.17
67599;BMP280;62026;39.230;9.122;2022-08-06T02:15:24;100808.56;;;29.07
67599;BMP280;62026;39.230;9.122;2022-08-06T02:17:57;100795.88;;;29.11
67599;BMP280;62026;39.230;9.122;2022-08-06T02:20:30;100808.00;;;29.14
67599;BMP280;62026;39.230;9.122;2022-08-06T02:23:01;100795.31;;;29.06
67599;BMP280;62026;39.230;9.122;2022-08-06T02:25:30;100804.03;;;29.11
67599;BMP280;62026;39.230;9.122;2022-08-06T02:28:00;100801.19;;;29.08
67599;BMP280;62026;39.230;9.122;2022-08-06T02:30:35;100806.09;;;29.14
67599;BMP280;62026;39.230;9.122;2022-08-06T02:33:04;100799.06;;;29.13
67599;BMP280;62026;39.230;9.122;2022-08-06T02:35:36;100797.13;;;29.14
67599;BMP280;62026;39.230;9.122;2022-08-06T02:38:19;100796.00;;;29.15
67599;BMP280;62026;39.230;9.122;2022-08-06T02:40:57;100801.78;;;29.13
67599;BMP280;62026;39.230;9.122;2022-08-06T02:43:36;100806.31;;;29.09
67599;BMP280;62026;39.230;9.122;2022-08-06T02:48:52;100786.38;;;29.05
67599;BMP280;62026;39.230;9.122;2022-08-06T02:51:34;100791.13;;;29.08
67599;BMP280;62026;39.230;9.122;2022-08-06T02:54:09;100791.00;;;29.05
67599;BMP280;62026;39.230;9.122;2022-08-06T02:56:42;100770.03;;;28.93
67599;BMP280;62026;39.230;9.122;2022-08-06T02:59:12;100791.47;;;29.07
67599;BMP280;62026;39.230;9.122;2022-08-06T03:01:47;100779.66;;;29.03
67599;BMP280;62026;39.230;9.122;2022-08-06T03:04:15;100784.66;;;29.01
67599;BMP280;62026;39.230;9.122;2022-08-06T03:06:46;100786.47;;;28.97
67599;BMP280;62026;39.230;9.122;2022-08-06T03:09:15;100780.13;;;28.92
67599;BMP280;62026;39.230;9.122;2022-08-06T03:11:45;100777.75;;;28.91
67599;BMP280;62026;39.230;9.122;2022-08-06T03:14:15;100778.66;;;28.95
67599;BMP280;62026;39.230;9.122;2022-08-06T03:16:43;100769.47;;;28.87
67599;BMP280;62026;39.230;9.122;2022-08-06T03:19:11;100767.69;;;28.91
67599;BMP280;62026;39.230;9.122;2022-08-06T03:21:41;100766.88;;;28.91
67599;BMP280;62026;39.230;9.122;2022-08-06T03:24:09;100774.69;;;28.92
67599;BMP280;62026;39.230;9.122;2022-08-06T03:26:38;100770.41;;;28.91
67599;BMP280;62026;39.230;9.122;2022-08-06T03:29:05;100785.56;;;28.92
67599;BMP280;62026;39.230;9.122;2022-08-06T03:31:33;100782.81;;;28.92
67599;BMP280;62026;39.230;9.122;2022-08-06T03:34:01;100777.63;;;28.87
67599;BMP280;62026;39.230;9.122;2022-08-06T03:36:28;100764.28;;;28.82
67599;BMP280;62026;39.230;9.122;2022-08-06T03:39:06;100772.19;;;28.87
67599;BMP280;62026;39.230;9.122;2022-08-06T03:41:38;100779.91;;;28.85
67599;BMP280;62026;39.230;9.122;2022-08-06T03:44:05;100772.97;;;28.76
67599;BMP280;62026;39.230;9.122;2022-08-06T03:46:50;100774.22;;;28.78
67599;BMP280;62026;39.230;9.122;2022-08-06T03:49:27;100774.91;;;28.75
67599;BMP280;62026;39.230;9.122;2022-08-06T03:51:56;100780.09;;;28.80
67599;BMP280;62026;39.230;9.122;2022-08-06T03:54:35;100765.38;;;28.69
67599;BMP280;62026;39.230;9.122;2022-08-06T03:57:10;100778.75;;;28.74
67599;BMP280;62026;39.230;9.122;2022-08-06T03:59:43;100775.81;;;28.79
67599;BMP280;62026;39.230;9.122;2022-08-06T04:02:12;100773.78;;;28.76
67599;BMP280;62026;39.230;9.122;2022-08-06T04:04:41;100778.41;;;28.76
67599;BMP280;62026;39.230;9.122;2022-08-06T04:07:09;100777.63;;;28.75
67599;BMP280;62026;39.230;9.122;2022-08-06T04:09:36;100785.09;;;28.78
67599;BMP280;62026;39.230;9.122;2022-08-06T04:12:04;100778.75;;;28.74
67599;BMP280;62026;39.230;9.122;2022-08-06T04:14:31;100779.88;;;28.73
67599;BMP280;62026;39.230;9.122;2022-08-06T04:17:00;100782.25;;;28.75
67599;BMP280;62026;39.230;9.122;2022-08-06T04:19:29;100775.53;;;28.60
67599;BMP280;62026;39.230;9.122;2022-08-06T04:21:56;100794.13;;;28.70
67599;BMP280;62026;39.230;9.122;2022-08-06T04:24:22;100780.88;;;28.69
67599;BMP280;62026;39.230;9.122;2022-08-06T04:26:52;100788.69;;;28.70
67599;BMP280;62026;39.230;9.122;2022-08-06T04:29:21;100790.28;;;28.71
67599;BMP280;62026;39.230;9.122;2022-08-06T04:31:50;100793.22;;;28.66
67599;BMP280;62026;39.230;9.122;2022-08-06T04:34:25;100793.09;;;28.63
67599;BMP280;62026;39.230;9.122;2022-08-06T04:36:54;100787.31;;;28.52
67599;BMP280;62026;39.230;9.122;2022-08-06T04:39:21;100783.22;;;28.46
67599;BMP280;62026;39.230;9.122;2022-08-06T04:41:49;100794.69;;;28.64
67599;BMP280;62026;39.230;9.122;2022-08-06T04:44:16;100799.09;;;28.56
67599;BMP280;62026;39.230;9.122;2022-08-06T04:46:43;100797.41;;;28.64
67599;BMP280;62026;39.230;9.122;2022-08-06T04:49:16;100795.47;;;28.64
67599;BMP280;62026;39.230;9.122;2022-08-06T04:51:51;100812.25;;;28.66
67599;BMP280;62026;39.230;9.122;2022-08-06T04:54:18;100803.28;;;28.66
67599;BMP280;62026;39.230;9.122;2022-08-06T04:56:44;100808.84;;;28.69
67599;BMP280;62026;39.230;9.122;2022-08-06T04:59:10;100805.00;;;28.58
67599;BMP280;62026;39.230;9.122;2022-08-06T05:01:37;100811.78;;;28.64
67599;BMP280;62026;39.230;9.122;2022-08-06T05:04:04;100814.38;;;28.61
67599;BMP280;62026;39.230;9.122;2022-08-06T05:06:59;100817.81;;;28.70
67599;BMP280;62026;39.230;9.122;2022-08-06T05:09:27;100825.63;;;28.71
67599;BMP280;62026;39.230;9.122;2022-08-06T05:12:03;100834.91;;;28.70
67599;BMP280;62026;39.230;9.122;2022-08-06T05:14:39;100831.50;;;28.73
67599;BMP280;62026;39.230;9.122;2022-08-06T05:17:12;100838.88;;;28.73
67599;BMP280;62026;39.230;9.122;2022-08-06T05:19:50;100834.00;;;28.78
67599;BMP280;62026;39.230;9.122;2022-08-06T05:22:20;100829.50;;;28.82
67599;BMP280;62026;39.230;9.122;2022-08-06T05:24:48;100833.56;;;28.88
67599;BMP280;62026;39.230;9.122;2022-08-06T05:27:15;100834.41;;;28.89
67599;BMP280;62026;39.230;9.122;2022-08-06T05:29:41;100832.25;;;28.94
67599;BMP280;62026;39.230;9.122;2022-08-06T05:32:08;100832.47;;;29.02
67599;BMP280;62026;39.230;9.122;2022-08-06T05:34:34;100822.06;;;28.91
67599;BMP280;62026;39.230;9.122;2022-08-06T05:37:00;100834.28;;;28.85
67599;BMP280;62026;39.230;9.122;2022-08-06T05:39:27;100831.06;;;28.83
67599;BMP280;62026;39.230;9.122;2022-08-06T05:41:53;100822.16;;;28.83
67599;BMP280;62026;39.230;9.122;2022-08-06T05:44:19;100827.59;;;28.83
67599;BMP280;62026;39.230;9.122;2022-08-06T05:46:53;100824.22;;;28.98
67599;BMP280;62026;39.230;9.122;2022-08-06T05:49:36;100822.84;;;28.92
67599;BMP280;62026;39.230;9.122;2022-08-06T05:55:21;100836.09;;;29.18
67599;BMP280;62026;39.230;9.122;2022-08-06T05:57:57;100845.78;;;29.27
67599;BMP280;62026;39.230;9.122;2022-08-06T06:00:28;100837.38;;;29.32
67599;BMP280;62026;39.230;9.122;2022-08-06T06:02:58;100842.16;;;29.35
67599;BMP280;62026;39.230;9.122;2022-08-06T06:05:25;100835.22;;;29.38
67599;BMP280;62026;39.230;9.122;2022-08-06T06:07:53;100845.19;;;29.46
67599;BMP280;62026;39.230;9.122;2022-08-06T06:10:23;100844.19;;;29.51
67599;BMP280;62026;39.230;9.122;2022-08-06T06:12:50;100844.94;;;29.51
67599;BMP280;62026;39.230;9.122;2022-08-06T06:15:18;100853.59;;;29.53
67599;BMP280;62026;39.230;9.122;2022-08-06T06:18:01;100846.97;;;29.66
67599;BMP280;62026;39.230;9.122;2022-08-06T06:24:07;100850.59;;;29.82
67599;BMP280;62026;39.230;9.122;2022-08-06T06:26:52;100847.50;;;29.84
67599;BMP280;62026;39.230;9.122;2022-08-06T06:32:48;100848.72;;;29.99
67599;BMP280;62026;39.230;9.122;2022-08-06T06:35:59;100848.03;;;30.02
67599;BMP280;62026;39.230;9.122;2022-08-06T06:44:39;100857.53;;;30.20
67599;BMP280;62026;39.230;9.122;2022-08-06T06:47:25;100852.53;;;30.38
67599;BMP280;62026;39.230;9.122;2022-08-06T06:50:03;100856.78;;;30.35
67599;BMP280;62026;39.230;9.122;2022-08-06T06:52:40;100850.63;;;30.38
67599;BMP280;62026;39.230;9.122;2022-08-06T06:55:22;100847.72;;;30.47
67599;BMP280;62026;39.230;9.122;2022-08-06T06:58:25;100858.16;;;30.57
67599;BMP280;62026;39.230;9.122;2022-08-06T07:00:55;100855.16;;;30.62
67599;BMP280;62026;39.230;9.122;2022-08-06T07:03:23;100861.88;;;30.64
67599;BMP280;62026;39.230;9.122;2022-08-06T07:05:50;100851.28;;;30.79
67599;BMP280;62026;39.230;9.122;2022-08-06T07:08:21;100867.78;;;30.82
67599;BMP280;62026;39.230;9.122;2022-08-06T07:10:50;100842.84;;;30.84
67599;BMP280;62026;39.230;9.122;2022-08-06T07:13:19;100848.06;;;30.89
67599;BMP280;62026;39.230;9.122;2022-08-06T07:15:48;100847.88;;;30.97
67599;BMP280;62026;39.230;9.122;2022-08-06T07:18:16;100848.75;;;31.17
67599;BMP280;62026;39.230;9.122;2022-08-06T07:20:44;100846.16;;;31.24
67599;BMP280;62026;39.230;9.122;2022-08-06T07:23:10;100838.88;;;31.28
67599;BMP280;62026;39.230;9.122;2022-08-06T07:25:45;100848.97;;;31.43
67599;BMP280;62026;39.230;9.122;2022-08-06T07:28:12;100851.88;;;31.50
67599;BMP280;62026;39.230;9.122;2022-08-06T07:30:43;100849.22;;;31.54
67599;BMP280;62026;39.230;9.122;2022-08-06T07:33:11;100856.19;;;31.71
67599;BMP280;62026;39.230;9.122;2022-08-06T07:35:41;100858.81;;;31.83
67599;BMP280;62026;39.230;9.122;2022-08-06T07:38:10;100848.91;;;31.94
67599;BMP280;62026;39.230;9.122;2022-08-06T07:40:47;100852.75;;;32.12
67599;BMP280;62026;39.230;9.122;2022-08-06T07:43:20;100848.50;;;32.15
67599;BMP280;62026;39.230;9.122;2022-08-06T07:45:49;100828.03;;;32.05
67599;BMP280;62026;39.230;9.122;2022-08-06T07:48:23;100838.97;;;32.24
67599;BMP280;62026;39.230;9.122;2022-08-06T07:50:52;100837.31;;;32.42
67599;BMP280;62026;39.230;9.122;2022-08-06T07:53:21;100839.03;;;32.50
67599;BMP280;62026;39.230;9.122;2022-08-06T07:55:48;100843.66;;;32.46
67599;BMP280;62026;39.230;9.122;2022-08-06T07:58:15;100825.59;;;32.42
67599;BMP280;62026;39.230;9.122;2022-08-06T08:00:42;100826.88;;;32.71
67599;BMP280;62026;39.230;9.122;2022-08-06T08:03:10;100830.06;;;32.76
67599;BMP280;62026;39.230;9.122;2022-08-06T08:05:56;100827.91;;;32.63
67599;BMP280;62026;39.230;9.122;2022-08-06T08:08:42;100828.03;;;32.96
67599;BMP280;62026;39.230;9.122;2022-08-06T08:11:10;100832.94;;;33.10
67599;BMP280;62026;39.230;9.122;2022-08-06T08:13:38;100845.28;;;33.23
67599;BMP280;62026;39.230;9.122;2022-08-06T08:16:07;100826.81;;;33.16
67599;BMP280;62026;39.230;9.122;2022-08-06T08:18:34;100834.31;;;33.23
67599;BMP280;62026;39.230;9.122;2022-08-06T08:21:03;100829.78;;;33.37
67599;BMP280;62026;39.230;9.122;2022-08-06T08:23:30;100827.53;;;33.39
67599;BMP280;62026;39.230;9.122;2022-08-06T08:26:01;100829.47;;;33.42
67599;BMP280;62026;39.230;9.122;2022-08-06T08:28:27;100833.56;;;33.56
67599;BMP280;62026;39.230;9.122;2022-08-06T08:30:55;100830.69;;;33.75
67599;BMP280;62026;39.230;9.122;2022-08-06T08:33:25;100834.66;;;33.77
67599;BMP280;62026;39.230;9.122;2022-08-06T08:35:51;100830.09;;;33.92
67599;BMP280;62026;39.230;9.122;2022-08-06T08:38:18;100835.66;;;33.99
67599;BMP280;62026;39.230;9.122;2022-08-06T08:40:47;100829.47;;;34.06
67599;BMP280;62026;39.230;9.122;2022-08-06T08:43:23;100823.88;;;33.98
67599;BMP280;62026;39.230;9.122;2022-08-06T08:45:51;100825.78;;;34.31
67599;BMP280;62026;39.230;9.122;2022-08-06T08:48:26;100816.78;;;34.34
67599;BMP280;62026;39.230;9.122;2022-08-06T08:50:58;100825.19;;;34.52
67599;BMP280;62026;39.230;9.122;2022-08-06T08:53:44;100823.97;;;34.46
67599;BMP280;62026;39.230;9.122;2022-08-06T08:56:14;100833.97;;;34.68
67599;BMP280;62026;39.230;9.122;2022-08-06T08:58:43;100827.88;;;34.48
67599;BMP280;62026;39.230;9.122;2022-08-06T09:01:10;100836.31;;;34.70
67599;BMP280;62026;39.230;9.122;2022-08-06T09:03:39;100840.34;;;34.83
67599;BMP280;62026;39.230;9.122;2022-08-06T09:06:07;100830.25;;;35.05
67599;BMP280;62026;39.230;9.122;2022-08-06T09:08:33;100827.16;;;35.13
67599;BMP280;62026;39.230;9.122;2022-08-06T09:11:00;100834.69;;;35.23
67599;BMP280;62026;39.230;9.122;2022-08-06T09:13:27;100834.63;;;35.16
67599;BMP280;62026;39.230;9.122;2022-08-06T09:15:54;100842.09;;;35.16
67599;BMP280;62026;39.230;9.122;2022-08-06T09:18:22;100832.97;;;35.01
67599;BMP280;62026;39.230;9.122;2022-08-06T09:20:49;100824.38;;;35.03
67599;BMP280;62026;39.230;9.122;2022-08-06T09:23:15;100832.28;;;35.18
67599;BMP280;62026;39.230;9.122;2022-08-06T09:25:51;100835.81;;;35.15
67599;BMP280;62026;39.230;9.122;2022-08-06T09:28:37;100836.50;;;35.02
67599;BMP280;62026;39.230;9.122;2022-08-06T09:31:08;100843.66;;;35.20
67599;BMP280;62026;39.230;9.122;2022-08-06T09:33:39;100837.44;;;35.30
67599;BMP280;62026;39.230;9.122;2022-08-06T09:36:11;100833.56;;;35.38
67599;BMP280;62026;39.230;9.122;2022-08-06T09:38:56;100836.75;;;35.47
67599;BMP280;62026;39.230;9.122;2022-08-06T09:41:26;100818.69;;;35.39
67599;BMP280;62026;39.230;9.122;2022-08-06T09:43:54;100834.78;;;35.44
67599;BMP280;62026;39.230;9.122;2022-08-06T09:46:46;100830.16;;;35.70
67599;BMP280;62026;39.230;9.122;2022-08-06T09:49:14;100818.00;;;35.71
67599;BMP280;62026;39.230;9.122;2022-08-06T09:51:42;100830.16;;;35.66
67599;BMP280;62026;39.230;9.122;2022-08-06T09:54:11;100827.28;;;35.38
67599;BMP280;62026;39.230;9.122;2022-08-06T09:56:56;100815.63;;;35.73
67599;BMP280;62026;39.230;9.122;2022-08-06T09:59:23;100827.44;;;35.80
67599;BMP280;62026;39.230;9.122;2022-08-06T10:01:49;100818.84;;;36.21
67599;BMP280;62026;39.230;9.122;2022-08-06T10:04:27;100823.47;;;35.71
67599;BMP280;62026;39.230;9.122;2022-08-06T10:06:57;100813.13;;;35.32
67599;BMP280;62026;39.230;9.122;2022-08-06T10:09:24;100813.97;;;35.50
67599;BMP280;62026;39.230;9.122;2022-08-06T10:11:51;100822.59;;;35.38
67599;BMP280;62026;39.230;9.122;2022-08-06T10:14:31;100817.41;;;35.26
67599;BMP280;62026;39.230;9.122;2022-08-06T10:19:36;100819.81;;;35.31
67599;BMP280;62026;39.230;9.122;2022-08-06T10:22:10;100827.34;;;35.48
67599;BMP280;62026;39.230;9.122;2022-08-06T10:24:48;100822.66;;;35.60
67599;BMP280;62026;39.230;9.122;2022-08-06T10:27:20;100806.97;;;35.64
67599;BMP280;62026;39.230;9.122;2022-08-06T10:29:53;100806.53;;;35.55
67599;BMP280;62026;39.230;9.122;2022-08-06T10:32:29;100815.50;;;35.37
67599;BMP280;62026;39.230;9.122;2022-08-06T10:35:03;100806.47;;;35.33
67599;BMP280;62026;39.230;9.122;2022-08-06T10:37:33;100804.72;;;34.97
67599;BMP280;62026;39.230;9.122;2022-08-06T10:40:03;100798.72;;;35.64
67599;BMP280;62026;39.230;9.122;2022-08-06T10:42:30;100812.41;;;35.49
67599;BMP280;62026;39.230;9.122;2022-08-06T10:44:58;100798.97;;;35.23
67599;BMP280;62026;39.230;9.122;2022-08-06T10:47:28;100794.22;;;35.20
67599;BMP280;62026;39.230;9.122;2022-08-06T10:49:55;100795.00;;;35.14
67599;BMP280;62026;39.230;9.122;2022-08-06T10:52:23;100774.56;;;35.11
67599;BMP280;62026;39.230;9.122;2022-08-06T10:54:50;100786.47;;;35.29
67599;BMP280;62026;39.230;9.122;2022-08-06T10:57:18;100785.63;;;35.22
67599;BMP280;62026;39.230;9.122;2022-08-06T10:59:47;100793.09;;;35.21
67599;BMP280;62026;39.230;9.122;2022-08-06T11:05:17;100790.28;;;35.07
67599;BMP280;62026;39.230;9.122;2022-08-06T11:11:51;100787.16;;;35.12
67599;BMP280;62026;39.230;9.122;2022-08-06T11:14:13;100787.09;;;34.98
67599;BMP280;62026;39.230;9.122;2022-08-06T11:16:40;100789.84;;;34.98
67599;BMP280;62026;39.230;9.122;2022-08-06T11:19:10;100797.00;;;34.59
67599;BMP280;62026;39.230;9.122;2022-08-06T11:21:45;100798.50;;;34.45
67599;BMP280;62026;39.230;9.122;2022-08-06T11:24:13;100791.59;;;34.18
67599;BMP280;62026;39.230;9.122;2022-08-06T11:26:44;100791.44;;;34.04
67599;BMP280;62026;39.230;9.122;2022-08-06T11:29:13;100785.09;;;33.96
67599;BMP280;62026;39.230;9.122;2022-08-06T11:31:45;100779.94;;;33.88
67599;BMP280;62026;39.230;9.122;2022-08-06T11:34:19;100783.09;;;33.90
67599;BMP280;62026;39.230;9.122;2022-08-06T11:36:56;100798.94;;;33.74
67599;BMP280;62026;39.230;9.122;2022-08-06T11:39:26;100794.97;;;33.68
67599;BMP280;62026;39.230;9.122;2022-08-06T11:42:02;100789.19;;;33.73
67599;BMP280;62026;39.230;9.122;2022-08-06T11:44:32;100784.38;;;33.63
67599;BMP280;62026;39.230;9.122;2022-08-06T11:47:14;100776.78;;;33.52
67599;BMP280;62026;39.230;9.122;2022-08-06T11:49:48;100774.81;;;33.20
67599;BMP280;62026;39.230;9.122;2022-08-06T11:55:03;100783.31;;;33.41
67599;BMP280;62026;39.230;9.122;2022-08-06T11:57:31;100789.91;;;33.36
67599;BMP280;62026;39.230;9.122;2022-08-06T12:02:53;100780.03;;;32.76
67599;BMP280;62026;39.230;9.122;2022-08-06T12:08:13;100766.59;;;33.16
67599;BMP280;62026;39.230;9.122;2022-08-06T12:13:46;100767.00;;;32.92
67599;BMP280;62026;39.230;9.122;2022-08-06T12:16:31;100764.03;;;33.00
67599;BMP280;62026;39.230;9.122;2022-08-06T12:18:57;100763.22;;;33.00
67599;BMP280;62026;39.230;9.122;2022-08-06T12:21:24;100768.53;;;32.89
67599;BMP280;62026;39.230;9.122;2022-08-06T12:23:52;100768.19;;;32.68
67599;BMP280;62026;39.230;9.122;2022-08-06T12:26:20;100759.25;;;32.45
67599;BMP280;62026;39.230;9.122;2022-08-06T12:28:48;100762.16;;;32.55
67599;BMP280;62026;39.230;9.122;2022-08-06T12:31:29;100750.28;;;32.71
67599;BMP280;62026;39.230;9.122;2022-08-06T12:33:56;100756.81;;;32.63
67599;BMP280;62026;39.230;9.122;2022-08-06T12:36:27;100759.38;;;32.29
67599;BMP280;62026;39.230;9.122;2022-08-06T12:38:57;100768.03;;;32.57
67599;BMP280;62026;39.230;9.122;2022-08-06T12:41:33;100771.31;;;32.44
67599;BMP280;62026;39.230;9.122;2022-08-06T12:44:00;100769.47;;;32.74
67599;BMP280;62026;39.230;9.122;2022-08-06T12:46:26;100771.03;;;32.75
67599;BMP280;62026;39.230;9.122;2022-08-06T12:48:52;100763.47;;;32.65
67599;BMP280;62026;39.230;9.122;2022-08-06T12:51:19;100781.34;;;32.59
67599;BMP280;62026;39.230;9.122;2022-08-06T12:54:03;100774.06;;;32.67
67599;BMP280;62026;39.230;9.122;2022-08-06T12:56:38;100776.66;;;32.59
67599;BMP280;62026;39.230;9.122;2022-08-06T12:59:10;100785.34;;;32.65
67599;BMP280;62026;39.230;9.122;2022-08-06T13:01:36;100768.84;;;32.58
67599;BMP280;62026;39.230;9.122;2022-08-06T13:04:07;100763.53;;;32.69
67599;BMP280;62026;39.230;9.122;2022-08-06T13:06:37;100769.56;;;32.55
67599;BMP280;62026;39.230;9.122;2022-08-06T13:09:04;100766.91;;;32.58
67599;BMP280;62026;39.230;9.122;2022-08-06T13:11:32;100754.75;;;32.33
67599;BMP280;62026;39.230;9.122;2022-08-06T13:14:07;100768.78;;;32.54
67599;BMP280;62026;39.230;9.122;2022-08-06T13:16:45;100766.88;;;32.36
67599;BMP280;62026;39.230;9.122;2022-08-06T13:19:15;100763.84;;;32.64
67599;BMP280;62026;39.230;9.122;2022-08-06T13:21:44;100775.50;;;32.38
67599;BMP280;62026;39.230;9.122;2022-08-06T13:24:12;100759.72;;;32.28
67599;BMP280;62026;39.230;9.122;2022-08-06T13:26:52;100772.06;;;32.18
67599;BMP280;62026;39.230;9.122;2022-08-06T13:29:26;100750.53;;;31.94
67599;BMP280;62026;39.230;9.122;2022-08-06T13:32:07;100752.66;;;31.81
67599;BMP280;62026;39.230;9.122;2022-08-06T13:34:49;100751.00;;;32.19
67599;BMP280;62026;39.230;9.122;2022-08-06T13:40:07;100762.97;;;32.10
67599;BMP280;62026;39.230;9.122;2022-08-06T13:42:33;100748.50;;;32.10
67599;BMP280;62026;39.230;9.122;2022-08-06T13:44:59;100757.53;;;32.14
67599;BMP280;62026;39.230;9.122;2022-08-06T13:47:28;100749.66;;;32.09
67599;BMP280;62026;39.230;9.122;2022-08-06T13:49:54;100772.22;;;32.06
67599;BMP280;62026;39.230;9.122;2022-08-06T13:52:21;100770.78;;;31.93
67599;BMP280;62026;39.230;9.122;2022-08-06T13:54:47;100751.88;;;31.84
67599;BMP280;62026;39.230;9.122;2022-08-06T13:57:13;100777.13;;;31.97
67599;BMP280;62026;39.230;9.122;2022-08-06T13:59:39;100772.41;;;31.94
67599;BMP280;62026;39.230;9.122;2022-08-06T14:02:06;100755.78;;;31.83
67599;BMP280;62026;39.230;9.122;2022-08-06T14:04:32;100751.13;;;31.84
67599;BMP280;62026;39.230;9.122;2022-08-06T14:06:59;100753.06;;;31.83
67599;BMP280;62026;39.230;9.122;2022-08-06T14:09:29;100758.44;;;31.99
67599;BMP280;62026;39.230;9.122;2022-08-06T14:11:59;100760.28;;;31.95
67599;BMP280;62026;39.230;9.122;2022-08-06T14:14:27;100744.47;;;31.85
67599;BMP280;62026;39.230;9.122;2022-08-06T14:16:57;100766.84;;;31.90
67599;BMP280;62026;39.230;9.122;2022-08-06T14:19:26;100752.56;;;31.78
67599;BMP280;62026;39.230;9.122;2022-08-06T14:21:53;100739.22;;;31.73
67599;BMP280;62026;39.230;9.122;2022-08-06T14:24:19;100742.47;;;31.82
67599;BMP280;62026;39.230;9.122;2022-08-06T14:26:45;100743.09;;;31.72
67599;BMP280;62026;39.230;9.122;2022-08-06T14:29:11;100739.19;;;31.92
67599;BMP280;62026;39.230;9.122;2022-08-06T14:31:37;100743.16;;;31.98
67599;BMP280;62026;39.230;9.122;2022-08-06T14:34:04;100726.03;;;31.97
67599;BMP280;62026;39.230;9.122;2022-08-06T14:36:31;100729.50;;;31.98
67599;BMP280;62026;39.230;9.122;2022-08-06T14:38:58;100720.50;;;31.94
67599;BMP280;62026;39.230;9.122;2022-08-06T14:41:24;100736.28;;;32.04
67599;BMP280;62026;39.230;9.122;2022-08-06T14:44:11;100728.53;;;31.87
67599;BMP280;62026;39.230;9.122;2022-08-06T14:46:56;100731.53;;;31.78
67599;BMP280;62026;39.230;9.122;2022-08-06T14:49:22;100725.81;;;31.87
67599;BMP280;62026;39.230;9.122;2022-08-06T14:51:48;100722.09;;;31.98
67599;BMP280;62026;39.230;9.122;2022-08-06T14:54:16;100716.47;;;31.88
67599;BMP280;62026;39.230;9.122;2022-08-06T14:56:43;100735.78;;;31.98
67599;BMP280;62026;39.230;9.122;2022-08-06T14:59:09;100726.63;;;32.10
67599;BMP280;62026;39.230;9.122;2022-08-06T15:01:35;100723.34;;;32.01
67599;BMP280;62026;39.230;9.122;2022-08-06T15:04:02;100729.50;;;31.98
67599;BMP280;62026;39.230;9.122;2022-08-06T15:06:29;100733.66;;;32.11
67599;BMP280;62026;39.230;9.122;2022-08-06T15:08:55;100728.75;;;31.97